sensor_id;sensor_type;location;lat;lon;timestamp;pressure;altitude;pressure_sealevel;temperature;humidity
7105;BME280;3594;42.152;24.714;2022-09-09T00:01:23;-24288.47;;;16.92;nan
7105;BME280;3594;42.152;24.714;2022-09-09T00:04:00;-24275.75;;;16.46;nan
7105;BME280;3594;42.152;24.714;2022-09-09T00:06:33;-24288.19;;;16.91;nan
7105;BME280;3594;42.152;24.714;2022-09-09T00:09:14;-24287.91;;;16.90;nan
7105;BME280;3594;42.152;24.714;2022-09-09T00:14:25;-24278.69;;;16.56;nan
7105;BME280;3594;42.152;24.714;2022-09-09T00:17:01;-24276.72;;;16.49;nan
7105;BME280;3594;42.152;24.714;2022-09-09T00:19:44;-24276.72;;;16.49;nan
7105;BME280;3594;42.152;24.714;2022-09-09T00:22:19;-24277.28;;;16.51;nan
7105;BME280;3594;42.152;24.714;2022-09-09T00:24:49;-24281.63;;;16.67;nan
7105;BME280;3594;42.152;24.714;2022-09-09T00:27:41;-24282.59;;;16.70;nan
7105;BME280;3594;42.152;24.714;2022-09-09T00:30:16;-24281.78;;;16.67;nan
7105;BME280;3594;42.152;24.714;2022-09-09T00:32:45;-24274.34;;;16.41;nan
7105;BME280;3594;42.152;24.714;2022-09-09T00:37:42;-24282.03;;;16.68;nan
7105;BME280;3594;42.152;24.714;2022-09-09T00:40:29;-24283.16;;;16.72;nan
7105;BME280;3594;42.152;24.714;2022-09-09T00:48:22;-24275.34;;;16.44;nan
7105;BME280;3594;42.152;24.714;2022-09-09T00:51:09;-24274.34;;;16.41;nan
7105;BME280;3594;42.152;24.714;2022-09-09T00:56:38;-24267.94;;;16.17;nan
7105;BME280;3594;42.152;24.714;2022-09-09T01:01:36;-24260.50;;;15.90;nan
7105;BME280;3594;42.152;24.714;2022-09-09T01:04:08;-24270.03;;;16.25;nan
7105;BME280;3594;42.152;24.714;2022-09-09T01:06:41;-24273.94;;;16.39;nan
7105;BME280;3594;42.152;24.714;2022-09-09T01:14:39;-24261.63;;;15.95;nan
7105;BME280;3594;42.152;24.714;2022-09-09T01:17:20;-24268.63;;;16.20;nan
7105;BME280;3594;42.152;24.714;2022-09-09T01:22:38;-24268.34;;;16.19;nan
7105;BME280;3594;42.152;24.714;2022-09-09T01:25:20;-24267.09;;;16.14;nan
7105;BME280;3594;42.152;24.714;2022-09-09T01:27:49;-24255.19;;;15.71;nan
7105;BME280;3594;42.152;24.714;2022-09-09T01:30:17;-24256.47;;;15.76;nan
7105;BME280;3594;42.152;24.714;2022-09-09T01:32:46;-24254.78;;;15.70;nan
7105;BME280;3594;42.152;24.714;2022-09-09T01:38:23;-24262.75;;;15.99;nan
7105;BME280;3594;42.152;24.714;2022-09-09T01:40:50;-24261.78;;;15.95;nan
7105;BME280;3594;42.152;24.714;2022-09-09T01:43:19;-24265.97;;;16.10;nan
7105;BME280;3594;42.152;24.714;2022-09-09T01:45:46;-24263.59;;;16.02;nan
7105;BME280;3594;42.152;24.714;2022-09-09T01:48:12;-24262.19;;;15.97;nan
7105;BME280;3594;42.152;24.714;2022-09-09T01:50:38;-24258.41;;;15.83;nan
7105;BME280;3594;42.152;24.714;2022-09-09T01:53:03;-24254.06;;;15.67;nan
7105;BME280;3594;42.152;24.714;2022-09-09T01:55:31;-24265.81;;;16.10;nan
7105;BME280;3594;42.152;24.714;2022-09-09T01:58:26;-24268.34;;;16.19;nan
7105;BME280;3594;42.152;24.714;2022-09-09T02:03:52;-24267.78;;;16.17;nan
7105;BME280;3594;42.152;24.714;2022-09-09T02:06:37;-24263.03;;;16.00;nan
7105;BME280;3594;42.152;24.714;2022-09-09T02:09:10;-24254.06;;;15.67;nan
7105;BME280;3594;42.152;24.714;2022-09-09T02:11:37;-24251.41;;;15.58;nan
7105;BME280;3594;42.152;24.714;2022-09-09T02:14:08;-24258.13;;;15.82;nan
7105;BME280;3594;42.152;24.714;2022-09-09T02:16:37;-24262.59;;;15.98;nan
7105;BME280;3594;42.152;24.714;2022-09-09T02:19:16;-24256.31;;;15.75;nan
7105;BME280;3594;42.152;24.714;2022-09-09T02:21:49;-24264.16;;;16.04;nan
7105;BME280;3594;42.152;24.714;2022-09-09T02:24:15;-24263.16;;;16.00;nan
7105;BME280;3594;42.152;24.714;2022-09-09T02:26:42;-24262.59;;;15.98;nan
7105;BME280;3594;42.152;24.714;2022-09-09T02:29:15;-24264.56;;;16.05;nan
7105;BME280;3594;42.152;24.714;2022-09-09T02:31:44;-24253.09;;;15.64;nan
7105;BME280;3594;42.152;24.714;2022-09-09T02:34:13;-24262.31;;;15.97;nan
7105;BME280;3594;42.152;24.714;2022-09-09T02:36:41;-24263.03;;;16.00;nan
7105;BME280;3594;42.152;24.714;2022-09-09T02:39:10;-24259.25;;;15.86;nan
7105;BME280;3594;42.152;24.714;2022-09-09T02:41:38;-24261.06;;;15.93;nan
7105;BME280;3594;42.152;24.714;2022-09-09T02:44:17;-24257.72;;;15.80;nan
7105;BME280;3594;42.152;24.714;2022-09-09T02:52:08;-24253.50;;;15.65;nan
7105;BME280;3594;42.152;24.714;2022-09-09T02:54:39;-24257.84;;;15.81;nan
7105;BME280;3594;42.152;24.714;2022-09-09T02:57:17;-24255.34;;;15.72;nan
7105;BME280;3594;42.152;24.714;2022-09-09T02:59:45;-24248.34;;;15.46;nan
7105;BME280;3594;42.152;24.714;2022-09-09T03:02:11;-24250.72;;;15.55;nan
7105;BME280;3594;42.152;24.714;2022-09-09T03:04:38;-24254.91;;;15.70;nan
7105;BME280;3594;42.152;24.714;2022-09-09T03:07:04;-24266.38;;;16.12;nan
7105;BME280;3594;42.152;24.714;2022-09-09T03:09:30;-24263.44;;;16.01;nan
7105;BME280;3594;42.152;24.714;2022-09-09T03:11:56;-24259.38;;;15.86;nan
7105;BME280;3594;42.152;24.714;2022-09-09T03:14:22;-24251.28;;;15.57;nan
7105;BME280;3594;42.152;24.714;2022-09-09T03:16:53;-24250.16;;;15.53;nan
7105;BME280;3594;42.152;24.714;2022-09-09T03:19:20;-24254.63;;;15.69;nan
7105;BME280;3594;42.152;24.714;2022-09-09T03:21:46;-24260.09;;;15.89;nan
7105;BME280;3594;42.152;24.714;2022-09-09T03:24:12;-24259.94;;;15.88;nan
7105;BME280;3594;42.152;24.714;2022-09-09T03:26:38;-24255.91;;;15.74;nan
7105;BME280;3594;42.152;24.714;2022-09-09T03:29:05;-24253.38;;;15.65;nan
7105;BME280;3594;42.152;24.714;2022-09-09T03:31:32;-24247.22;;;15.42;nan
7105;BME280;3594;42.152;24.714;2022-09-09T03:33:58;-24259.53;;;15.87;nan
7105;BME280;3594;42.152;24.714;2022-09-09T03:36:25;-24255.06;;;15.71;nan
7105;BME280;3594;42.152;24.714;2022-09-09T03:38:52;-24245.38;;;15.36;nan
7105;BME280;3594;42.152;24.714;2022-09-09T03:41:17;-24255.06;;;15.71;nan
7105;BME280;3594;42.152;24.714;2022-09-09T03:43:43;-24250.16;;;15.53;nan
7105;BME280;3594;42.152;24.714;2022-09-09T03:46:09;-24259.94;;;15.88;nan
7105;BME280;3594;42.152;24.714;2022-09-09T03:48:35;-24242.88;;;15.27;nan
7105;BME280;3594;42.152;24.714;2022-09-09T03:51:00;-24241.19;;;15.21;nan
7105;BME280;3594;42.152;24.714;2022-09-09T03:53:27;-24248.47;;;15.47;nan
7105;BME280;3594;42.152;24.714;2022-09-09T03:55:54;-24242.88;;;15.27;nan
7105;BME280;3594;42.152;24.714;2022-09-09T03:58:21;-24244.97;;;15.34;nan
7105;BME280;3594;42.152;24.714;2022-09-09T04:00:55;-24247.50;;;15.43;nan
7105;BME280;3594;42.152;24.714;2022-09-09T04:03:21;-24235.31;;;14.99;nan
7105;BME280;3594;42.152;24.714;2022-09-09T04:05:49;-24242.59;;;15.26;nan
7105;BME280;3594;42.152;24.714;2022-09-09T04:08:14;-24234.88;;;14.98;nan
7105;BME280;3594;42.152;24.714;2022-09-09T04:10:39;-24245.66;;;15.37;nan
7105;BME280;3594;42.152;24.714;2022-09-09T04:13:05;-24246.66;;;15.40;nan
7105;BME280;3594;42.152;24.714;2022-09-09T04:15:31;-24244.28;;;15.32;nan
7105;BME280;3594;42.152;24.714;2022-09-09T04:17:57;-24243.44;;;15.29;nan
7105;BME280;3594;42.152;24.714;2022-09-09T04:20:23;-24248.34;;;15.46;nan
7105;BME280;3594;42.152;24.714;2022-09-09T04:22:48;-24238.66;;;15.12;nan
7105;BME280;3594;42.152;24.714;2022-09-09T04:25:14;-24254.50;;;15.69;nan
7105;BME280;3594;42.152;24.714;2022-09-09T04:27:40;-24249.59;;;15.51;nan
7105;BME280;3594;42.152;24.714;2022-09-09T04:30:06;-24261.34;;;15.94;nan
7105;BME280;3594;42.152;24.714;2022-09-09T04:32:35;-24267.78;;;16.17;nan
7105;BME280;3594;42.152;24.714;2022-09-09T04:35:02;-24261.22;;;15.93;nan
7105;BME280;3594;42.152;24.714;2022-09-09T04:37:28;-24275.06;;;16.43;nan
7105;BME280;3594;42.152;24.714;2022-09-09T04:39:53;-24279.41;;;16.59;nan
7105;BME280;3594;42.152;24.714;2022-09-09T04:42:19;-24280.38;;;16.62;nan
7105;BME280;3594;42.152;24.714;2022-09-09T04:44:44;-24276.16;;;16.47;nan
7105;BME280;3594;42.152;24.714;2022-09-09T04:47:10;-24278.69;;;16.56;nan
7105;BME280;3594;42.152;24.714;2022-09-09T04:49:36;-24285.53;;;16.81;nan
7105;BME280;3594;42.152;24.714;2022-09-09T04:52:03;-24283.59;;;16.74;nan
7105;BME280;3594;42.152;24.714;2022-09-09T04:54:29;-24288.06;;;16.90;nan
7105;BME280;3594;42.152;24.714;2022-09-09T04:56:54;-24296.84;;;17.22;nan
7105;BME280;3594;42.152;24.714;2022-09-09T04:59:21;-24301.19;;;17.38;nan
7105;BME280;3594;42.152;24.714;2022-09-09T05:01:47;-24294.91;;;17.15;nan
7105;BME280;3594;42.152;24.714;2022-09-09T05:04:13;-24299.91;;;17.33;nan
7105;BME280;3594;42.152;24.714;2022-09-09T05:06:40;-24296.28;;;17.20;nan
7105;BME280;3594;42.152;24.714;2022-09-09T05:09:06;-24307.75;;;17.61;nan
7105;BME280;3594;42.152;24.714;2022-09-09T05:11:33;-24319.03;;;18.02;nan
7105;BME280;3594;42.152;24.714;2022-09-09T05:14:02;-24316.09;;;17.92;nan
7105;BME280;3594;42.152;24.714;2022-09-09T05:16:28;-24328.38;;;18.36;nan
7105;BME280;3594;42.152;24.714;2022-09-09T05:18:53;-24327.69;;;18.34;nan
7105;BME280;3594;42.152;24.714;2022-09-09T05:21:21;-24326.13;;;18.28;nan
7105;BME280;3594;42.152;24.714;2022-09-09T05:23:46;-24322.94;;;18.17;nan
7105;BME280;3594;42.152;24.714;2022-09-09T05:26:17;-24335.47;;;18.62;nan
7105;BME280;3594;42.152;24.714;2022-09-09T05:28:43;-24330.19;;;18.43;nan
7105;BME280;3594;42.152;24.714;2022-09-09T05:31:10;-24341.88;;;18.85;nan
7105;BME280;3594;42.152;24.714;2022-09-09T05:33:40;-24339.38;;;18.76;nan
7105;BME280;3594;42.152;24.714;2022-09-09T05:36:08;-24338.81;;;18.74;nan
7105;BME280;3594;42.152;24.714;2022-09-09T05:38:34;-24334.78;;;18.60;nan
7105;BME280;3594;42.152;24.714;2022-09-09T05:41:02;-24336.44;;;18.66;nan
7105;BME280;3594;42.152;24.714;2022-09-09T05:43:28;-24342.16;;;18.86;nan
7105;BME280;3594;42.152;24.714;2022-09-09T05:46:03;-24336.03;;;18.64;nan
7105;BME280;3594;42.152;24.714;2022-09-09T05:48:31;-24353.00;;;19.26;nan
7105;BME280;3594;42.152;24.714;2022-09-09T05:50:58;-24345.38;;;18.98;nan
7105;BME280;3594;42.152;24.714;2022-09-09T05:53:25;-24352.47;;;19.24;nan
7105;BME280;3594;42.152;24.714;2022-09-09T05:55:57;-24353.28;;;19.27;nan
7105;BME280;3594;42.152;24.714;2022-09-09T05:58:23;-24358.72;;;19.47;nan
7105;BME280;3594;42.152;24.714;2022-09-09T06:00:49;-24369.72;;;19.87;nan
7105;BME280;3594;42.152;24.714;2022-09-09T06:03:15;-24368.19;;;19.81;nan
7105;BME280;3594;42.152;24.714;2022-09-09T06:05:42;-24360.25;;;19.52;nan
7105;BME280;3594;42.152;24.714;2022-09-09T06:08:07;-24369.56;;;19.86;nan
7105;BME280;3594;42.152;24.714;2022-09-09T06:10:33;-24381.38;;;20.29;nan
7105;BME280;3594;42.152;24.714;2022-09-09T06:12:59;-24386.25;;;20.47;nan
7105;BME280;3594;42.152;24.714;2022-09-09T06:15:25;-24380.00;;;20.24;nan
7105;BME280;3594;42.152;24.714;2022-09-09T06:17:55;-24384.16;;;20.39;nan
7105;BME280;3594;42.152;24.714;2022-09-09T06:20:21;-24392.34;;;20.69;nan
7105;BME280;3594;42.152;24.714;2022-09-09T06:22:47;-24389.72;;;20.59;nan
7105;BME280;3594;42.152;24.714;2022-09-09T06:25:14;-24395.13;;;20.79;nan
7105;BME280;3594;42.152;24.714;2022-09-09T06:27:39;-24391.09;;;20.64;nan
7105;BME280;3594;42.152;24.714;2022-09-09T06:30:06;-24398.31;;;20.91;nan
7105;BME280;3594;42.152;24.714;2022-09-09T06:32:32;-24389.44;;;20.58;nan
7105;BME280;3594;42.152;24.714;2022-09-09T06:34:59;-24396.91;;;20.86;nan
7105;BME280;3594;42.152;24.714;2022-09-09T06:37:26;-24397.19;;;20.87;nan
7105;BME280;3594;42.152;24.714;2022-09-09T06:39:52;-24397.34;;;20.87;nan
7105;BME280;3594;42.152;24.714;2022-09-09T06:42:19;-24403.31;;;21.09;nan
7105;BME280;3594;42.152;24.714;2022-09-09T06:44:45;-24404.28;;;21.12;nan
7105;BME280;3594;42.152;24.714;2022-09-09T06:47:10;-24397.75;;;20.89;nan
7105;BME280;3594;42.152;24.714;2022-09-09T06:49:36;-24400.38;;;20.98;nan
7105;BME280;3594;42.152;24.714;2022-09-09T06:52:01;-24413.69;;;21.47;nan
7105;BME280;3594;42.152;24.714;2022-09-09T06:54:27;-24410.94;;;21.37;nan
7105;BME280;3594;42.152;24.714;2022-09-09T06:56:53;-24402.19;;;21.05;nan
7105;BME280;3594;42.152;24.714;2022-09-09T06:59:18;-24406.22;;;21.20;nan
7105;BME280;3594;42.152;24.714;2022-09-09T07:01:44;-24413.44;;;21.46;nan
7105;BME280;3594;42.152;24.714;2022-09-09T07:04:10;-24416.75;;;21.58;nan
7105;BME280;3594;42.152;24.714;2022-09-09T07:06:44;-24426.44;;;21.93;nan
7105;BME280;3594;42.152;24.714;2022-09-09T07:09:13;-24431.72;;;22.13;nan
7105;BME280;3594;42.152;24.714;2022-09-09T07:11:43;-24429.63;;;22.05;nan
7105;BME280;3594;42.152;24.714;2022-09-09T07:14:10;-24433.38;;;22.19;nan
7105;BME280;3594;42.152;24.714;2022-09-09T07:16:42;-24443.88;;;22.57;nan
7105;BME280;3594;42.152;24.714;2022-09-09T07:19:08;-24433.09;;;22.18;nan
7105;BME280;3594;42.152;24.714;2022-09-09T07:21:34;-24438.63;;;22.38;nan
7105;BME280;3594;42.152;24.714;2022-09-09T07:23:59;-24443.88;;;22.57;nan
7105;BME280;3594;42.152;24.714;2022-09-09T07:26:27;-24438.50;;;22.37;nan
7105;BME280;3594;42.152;24.714;2022-09-09T07:28:54;-24447.34;;;22.70;nan
7105;BME280;3594;42.152;24.714;2022-09-09T07:31:26;-24441.53;;;22.48;nan
7105;BME280;3594;42.152;24.714;2022-09-09T07:33:52;-24450.38;;;22.81;nan
7105;BME280;3594;42.152;24.714;2022-09-09T07:36:18;-24457.31;;;23.06;nan
7105;BME280;3594;42.152;24.714;2022-09-09T07:38:52;-24455.63;;;23.00;nan
7105;BME280;3594;42.152;24.714;2022-09-09T07:41:26;-24449.69;;;22.78;nan
7105;BME280;3594;42.152;24.714;2022-09-09T07:43:52;-24467.09;;;23.42;nan
7105;BME280;3594;42.152;24.714;2022-09-09T07:46:23;-24465.59;;;23.37;nan
7105;BME280;3594;42.152;24.714;2022-09-09T07:48:51;-24467.78;;;23.45;nan
7105;BME280;3594;42.152;24.714;2022-09-09T07:51:25;-24476.22;;;23.75;nan
7105;BME280;3594;42.152;24.714;2022-09-09T07:53:54;-24476.91;;;23.78;nan
7105;BME280;3594;42.152;24.714;2022-09-09T07:56:19;-24485.75;;;24.10;nan
7105;BME280;3594;42.152;24.714;2022-09-09T07:58:49;-24480.78;;;23.92;nan
7105;BME280;3594;42.152;24.714;2022-09-09T08:01:30;-24491.25;;;24.31;nan
7105;BME280;3594;42.152;24.714;2022-09-09T08:04:01;-24484.22;;;24.05;nan
7105;BME280;3594;42.152;24.714;2022-09-09T08:06:29;-24491.81;;;24.33;nan
7105;BME280;3594;42.152;24.714;2022-09-09T08:08:54;-24493.75;;;24.40;nan
7105;BME280;3594;42.152;24.714;2022-09-09T08:11:21;-24501.47;;;24.68;nan
7105;BME280;3594;42.152;24.714;2022-09-09T08:13:49;-24511.38;;;25.04;nan
7105;BME280;3594;42.152;24.714;2022-09-09T08:16:23;-24496.63;;;24.50;nan
7105;BME280;3594;42.152;24.714;2022-09-09T08:18:50;-24505.31;;;24.82;nan
7105;BME280;3594;42.152;24.714;2022-09-09T08:21:24;-24511.66;;;25.05;nan
7105;BME280;3594;42.152;24.714;2022-09-09T08:23:51;-24504.91;;;24.81;nan
7105;BME280;3594;42.152;24.714;2022-09-09T08:26:21;-24512.88;;;25.10;nan
7105;BME280;3594;42.152;24.714;2022-09-09T08:28:47;-24519.22;;;25.33;nan
7105;BME280;3594;42.152;24.714;2022-09-09T08:31:17;-24518.81;;;25.32;nan
7105;BME280;3594;42.152;24.714;2022-09-09T08:33:43;-24528.56;;;25.68;nan
7105;BME280;3594;42.152;24.714;2022-09-09T08:36:15;-24536.00;;;25.95;nan
7105;BME280;3594;42.152;24.714;2022-09-09T08:38:42;-24546.59;;;26.34;nan
7105;BME280;3594;42.152;24.714;2022-09-09T08:43:41;-24536.97;;;25.99;nan
7105;BME280;3594;42.152;24.714;2022-09-09T08:46:24;-24512.19;;;25.07;nan
7105;BME280;3594;42.152;24.714;2022-09-09T08:49:17;-24492.22;;;24.34;nan
7105;BME280;3594;42.152;24.714;2022-09-09T08:51:44;-24501.03;;;24.67;nan
7105;BME280;3594;42.152;24.714;2022-09-09T08:54:09;-24510.00;;;24.99;nan
7105;BME280;3594;42.152;24.714;2022-09-09T08:56:35;-24521.00;;;25.40;nan
7105;BME280;3594;42.152;24.714;2022-09-09T08:59:02;-24531.59;;;25.79;nan
7105;BME280;3594;42.152;24.714;2022-09-09T09:12:41;-24528.44;;;25.67;nan
7105;BME280;3594;42.152;24.714;2022-09-09T09:15:18;-24531.88;;;25.80;nan
7105;BME280;3594;42.152;24.714;2022-09-09T09:17:44;-24532.56;;;25.82;nan
7105;BME280;3594;42.152;24.714;2022-09-09T09:20:14;-24533.81;;;25.87;nan
7105;BME280;3594;42.152;24.714;2022-09-09T09:23:00;-24542.59;;;26.19;nan
7105;BME280;3594;42.152;24.714;2022-09-09T09:25:33;-24538.75;;;26.05;nan
7105;BME280;3594;42.152;24.714;2022-09-09T09:28:14;-24546.03;;;26.32;nan
7105;BME280;3594;42.152;24.714;2022-09-09T09:33:49;-24570.19;;;27.21;nan
7105;BME280;3594;42.152;24.714;2022-09-09T09:36:16;-24566.63;;;27.08;nan
7105;BME280;3594;42.152;24.714;2022-09-09T09:38:57;-24574.16;;;27.36;nan
7105;BME280;3594;42.152;24.714;2022-09-09T09:41:52;-24569.50;;;27.18;nan
7105;BME280;3594;42.152;24.714;2022-09-09T09:44:28;-24553.19;;;26.58;nan
7105;BME280;3594;42.152;24.714;2022-09-09T09:47:20;-24555.22;;;26.66;nan
7105;BME280;3594;42.152;24.714;2022-09-09T09:49:53;-24554.69;;;26.64;nan
7105;BME280;3594;42.152;24.714;2022-09-09T09:52:26;-24554.69;;;26.64;nan
7105;BME280;3594;42.152;24.714;2022-09-09T09:54:53;-24543.69;;;26.23;nan
7105;BME280;3594;42.152;24.714;2022-09-09T09:57:24;-24557.16;;;26.73;nan
7105;BME280;3594;42.152;24.714;2022-09-09T10:00:24;-24564.56;;;27.00;nan
7105;BME280;3594;42.152;24.714;2022-09-09T10:02:50;-24570.19;;;27.21;nan
7105;BME280;3594;42.152;24.714;2022-09-09T10:05:22;-24571.00;;;27.24;nan
7105;BME280;3594;42.152;24.714;2022-09-09T10:08:08;-24580.19;;;27.58;nan
7105;BME280;3594;42.152;24.714;2022-09-09T10:27:08;-24570.06;;;27.20;nan
7105;BME280;3594;42.152;24.714;2022-09-09T10:38:11;-24560.72;;;26.86;nan
7105;BME280;3594;42.152;24.714;2022-09-09T10:48:30;-24556.31;;;26.70;nan
7105;BME280;3594;42.152;24.714;2022-09-09T10:51:23;-24566.47;;;27.07;nan
7105;BME280;3594;42.152;24.714;2022-09-09T10:56:26;-24575.81;;;27.42;nan
7105;BME280;3594;42.152;24.714;2022-09-09T11:01:40;-24592.25;;;28.02;nan
7105;BME280;3594;42.152;24.714;2022-09-09T11:04:23;-24596.34;;;28.18;nan
7105;BME280;3594;42.152;24.714;2022-09-09T11:06:54;-24602.50;;;28.40;nan
7105;BME280;3594;42.152;24.714;2022-09-09T11:09:33;-24605.53;;;28.51;nan
7105;BME280;3594;42.152;24.714;2022-09-09T11:12:02;-24610.88;;;28.71;nan
7105;BME280;3594;42.152;24.714;2022-09-09T11:14:49;-24619.59;;;29.04;nan
7105;BME280;3594;42.152;24.714;2022-09-09T11:17:24;-24618.50;;;28.99;nan
7105;BME280;3594;42.152;24.714;2022-09-09T11:19:52;-24626.56;;;29.29;nan
7105;BME280;3594;42.152;24.714;2022-09-09T11:22:35;-24624.78;;;29.23;nan
7105;BME280;3594;42.152;24.714;2022-09-09T11:25:23;-24616.59;;;28.92;nan
7105;BME280;3594;42.152;24.714;2022-09-09T11:34:01;-24608.13;;;28.61;nan
7105;BME280;3594;42.152;24.714;2022-09-09T11:36:56;-24618.50;;;28.99;nan
7105;BME280;3594;42.152;24.714;2022-09-09T11:42:26;-24599.66;;;28.30;nan
7105;BME280;3594;42.152;24.714;2022-09-09T11:44:51;-24607.84;;;28.60;nan
7105;BME280;3594;42.152;24.714;2022-09-09T11:47:24;-24615.91;;;28.90;nan
7105;BME280;3594;42.152;24.714;2022-09-09T11:49:55;-24620.97;;;29.09;nan
7105;BME280;3594;42.152;24.714;2022-09-09T11:52:39;-24633.53;;;29.55;nan
7105;BME280;3594;42.152;24.714;2022-09-09T11:57:58;-24650.19;;;30.17;nan
7105;BME280;3594;42.152;24.714;2022-09-09T12:00:36;-24655.09;;;30.35;nan
7105;BME280;3594;42.152;24.714;2022-09-09T12:03:03;-24644.19;;;29.95;nan
7105;BME280;3594;42.152;24.714;2022-09-09T12:05:44;-24641.72;;;29.85;nan
7105;BME280;3594;42.152;24.714;2022-09-09T12:08:16;-24645.69;;;30.00;nan
7105;BME280;3594;42.152;24.714;2022-09-09T12:10:58;-24648.69;;;30.11;nan
7105;BME280;3594;42.152;24.714;2022-09-09T12:13:28;-24668.84;;;30.86;nan
7105;BME280;3594;42.152;24.714;2022-09-09T12:15:56;-24654.00;;;30.31;nan
7105;BME280;3594;42.152;24.714;2022-09-09T12:18:38;-24663.53;;;30.66;nan
7105;BME280;3594;42.152;24.714;2022-09-09T12:21:21;-24652.78;;;30.26;nan
7105;BME280;3594;42.152;24.714;2022-09-09T12:24:11;-24663.81;;;30.67;nan
7105;BME280;3594;42.152;24.714;2022-09-09T12:26:54;-24654.00;;;30.31;nan
7105;BME280;3594;42.152;24.714;2022-09-09T12:31:59;-24636.00;;;29.64;nan
7105;BME280;3594;42.152;24.714;2022-09-09T12:34:35;-24626.16;;;29.28;nan
7105;BME280;3594;42.152;24.714;2022-09-09T12:39:58;-24649.38;;;30.14;nan
7105;BME280;3594;42.152;24.714;2022-09-09T12:42:25;-24654.53;;;30.33;nan
7105;BME280;3594;42.152;24.714;2022-09-09T12:44:59;-24651.53;;;30.22;nan
7105;BME280;3594;42.152;24.714;2022-09-09T12:47:49;-24655.78;;;30.38;nan
7105;BME280;3594;42.152;24.714;2022-09-09T12:50:27;-24656.19;;;30.39;nan
7105;BME280;3594;42.152;24.714;2022-09-09T12:52:55;-24652.09;;;30.24;nan
7105;BME280;3594;42.152;24.714;2022-09-09T12:55:35;-24651.53;;;30.22;nan
7105;BME280;3594;42.152;24.714;2022-09-09T12:58:02;-24663.00;;;30.64;nan
7105;BME280;3594;42.152;24.714;2022-09-09T13:00:33;-24663.81;;;30.67;nan
7105;BME280;3594;42.152;24.714;2022-09-09T13:03:01;-24666.81;;;30.79;nan
7105;BME280;3594;42.152;24.714;2022-09-09T13:05:37;-24674.56;;;31.07;nan
7105;BME280;3594;42.152;24.714;2022-09-09T13:08:08;-24670.22;;;30.91;nan
7105;BME280;3594;42.152;24.714;2022-09-09T13:10:57;-24666.81;;;30.79;nan
7105;BME280;3594;42.152;24.714;2022-09-09T13:13:36;-24662.16;;;30.61;nan
7105;BME280;3594;42.152;24.714;2022-09-09T13:16:04;-24671.69;;;30.97;nan
7105;BME280;3594;42.152;24.714;2022-09-09T13:18:34;-24670.47;;;30.92;nan
7105;BME280;3594;42.152;24.714;2022-09-09T13:21:01;-24675.78;;;31.12;nan
7105;BME280;3594;42.152;24.714;2022-09-09T13:23:29;-24674.16;;;31.06;nan
7105;BME280;3594;42.152;24.714;2022-09-09T13:25:56;-24664.75;;;30.71;nan
7105;BME280;3594;42.152;24.714;2022-09-09T13:28:25;-24665.72;;;30.75;nan
7105;BME280;3594;42.152;24.714;2022-09-09T13:30:58;-24665.31;;;30.73;nan
7105;BME280;3594;42.152;24.714;2022-09-09T13:33:33;-24666.53;;;30.78;nan
7105;BME280;3594;42.152;24.714;2022-09-09T13:36:10;-24660.53;;;30.55;nan
7105;BME280;3594;42.152;24.714;2022-09-09T13:38:53;-24653.44;;;30.29;nan
7105;BME280;3594;42.152;24.714;2022-09-09T13:41:21;-24651.28;;;30.21;nan
7105;BME280;3594;42.152;24.714;2022-09-09T13:43:49;-24661.34;;;30.58;nan
7105;BME280;3594;42.152;24.714;2022-09-09T13:46:32;-24653.19;;;30.28;nan
7105;BME280;3594;42.152;24.714;2022-09-09T13:49:18;-24657.81;;;30.45;nan
7105;BME280;3594;42.152;24.714;2022-09-09T13:51:47;-24655.50;;;30.37;nan
7105;BME280;3594;42.152;24.714;2022-09-09T13:54:15;-24650.31;;;30.17;nan
7105;BME280;3594;42.152;24.714;2022-09-09T13:56:42;-24653.19;;;30.28;nan
7105;BME280;3594;42.152;24.714;2022-09-09T13:59:16;-24650.59;;;30.18;nan
7105;BME280;3594;42.152;24.714;2022-09-09T14:01:42;-24652.34;;;30.25;nan
7105;BME280;3594;42.152;24.714;2022-09-09T14:04:09;-24653.72;;;30.30;nan
7105;BME280;3594;42.152;24.714;2022-09-09T14:06:36;-24656.19;;;30.39;nan
7105;BME280;3594;42.152;24.714;2022-09-09T14:09:06;-24647.88;;;30.08;nan
7105;BME280;3594;42.152;24.714;2022-09-09T14:11:32;-24643.63;;;29.93;nan
7105;BME280;3594;42.152;24.714;2022-09-09T14:13:58;-24624.25;;;29.21;nan
7105;BME280;3594;42.152;24.714;2022-09-09T14:16:23;-24622.34;;;29.14;nan
7105;BME280;3594;42.152;24.714;2022-09-09T14:18:49;-24616.75;;;28.93;nan
7105;BME280;3594;42.152;24.714;2022-09-09T14:21:14;-24621.25;;;29.10;nan
7105;BME280;3594;42.152;24.714;2022-09-09T14:23:41;-24610.03;;;28.68;nan
7105;BME280;3594;42.152;24.714;2022-09-09T14:26:07;-24617.69;;;28.96;nan
7105;BME280;3594;42.152;24.714;2022-09-09T14:28:33;-24609.75;;;28.67;nan
7105;BME280;3594;42.152;24.714;2022-09-09T14:30:59;-24615.91;;;28.90;nan
7105;BME280;3594;42.152;24.714;2022-09-09T14:33:26;-24611.97;;;28.75;nan
7105;BME280;3594;42.152;24.714;2022-09-09T14:35:58;-24611.41;;;28.73;nan
7105;BME280;3594;42.152;24.714;2022-09-09T14:38:25;-24610.31;;;28.69;nan
7105;BME280;3594;42.152;24.714;2022-09-09T14:40:53;-24619.47;;;29.03;nan
7105;BME280;3594;42.152;24.714;2022-09-09T14:43:19;-24621.25;;;29.10;nan
7105;BME280;3594;42.152;24.714;2022-09-09T14:45:45;-24607.84;;;28.60;nan
7105;BME280;3594;42.152;24.714;2022-09-09T14:48:13;-24617.69;;;28.96;nan
7105;BME280;3594;42.152;24.714;2022-09-09T14:50:40;-24616.31;;;28.91;nan
7105;BME280;3594;42.152;24.714;2022-09-09T14:53:07;-24607.03;;;28.57;nan
7105;BME280;3594;42.152;24.714;2022-09-09T14:55:33;-24614.69;;;28.85;nan
7105;BME280;3594;42.152;24.714;2022-09-09T14:57:58;-24602.50;;;28.40;nan
7105;BME280;3594;42.152;24.714;2022-09-09T15:00:24;-24609.50;;;28.66;nan
7105;BME280;3594;42.152;24.714;2022-09-09T15:02:52;-24598.28;;;28.25;nan
7105;BME280;3594;42.152;24.714;2022-09-09T15:05:18;-24607.03;;;28.57;nan
7105;BME280;3594;42.152;24.714;2022-09-09T15:07:44;-24597.03;;;28.20;nan
7105;BME280;3594;42.152;24.714;2022-09-09T15:10:10;-24594.03;;;28.09;nan
7105;BME280;3594;42.152;24.714;2022-09-09T15:12:36;-24599.38;;;28.29;nan
7105;BME280;3594;42.152;24.714;2022-09-09T15:15:02;-24594.59;;;28.11;nan
7105;BME280;3594;42.152;24.714;2022-09-09T15:17:28;-24595.81;;;28.16;nan
7105;BME280;3594;42.152;24.714;2022-09-09T15:19:53;-24590.06;;;27.94;nan
7105;BME280;3594;42.152;24.714;2022-09-09T15:22:20;-24589.66;;;27.93;nan
7105;BME280;3594;42.152;24.714;2022-09-09T15:24:45;-24595.13;;;28.13;nan
7105;BME280;3594;42.152;24.714;2022-09-09T15:27:11;-24586.22;;;27.80;nan